Terminal Aerodrome Forecast
Issued by NWS

Home | Current Version | Previous Version | Graphics & Text | Print | Product List | Glossary On
Versions: 1 2 3 4 5 6 7 8 9 10 11 12 13 14 15 16 17 18 19 20
000
FTUS43 KGRB 240520
TAFRHI
TAF
KRHI 240520Z 2406/2506 27005KT P6SM SCT035 BKN080
      TEMPO 2406/2410 BKN030
     FM241000 30006KT P6SM BKN030
     FM241500 29007KT P6SM BKN020 PROB30 2416/2418 4SM -SHRA OVC007
     FM241800 29012G16KT P6SM -SHRA BKN025
     FM250000 29006KT P6SM SCT035 BKN040=

USA.gov is the U.S. government's official web portal to all federal, state and local government web resources and services.